createdAt,value
2023-04-23T00:01:21.509Z,13.43
2023-04-23T00:03:17.784Z,17.23
2023-04-23T00:05:16.197Z,16.20
2023-04-23T00:07:14.343Z,15.70
2023-04-23T00:09:10.809Z,17.52
2023-04-23T00:11:06.946Z,16.48
2023-04-23T00:13:02.906Z,15.27
2023-04-23T00:15:02.325Z,15.63
2023-04-23T00:16:58.736Z,15.32
2023-04-23T00:18:53.907Z,15.00
2023-04-23T00:20:53.410Z,15.63
2023-04-23T00:22:49.600Z,12.02
2023-04-23T00:24:45.798Z,16.42
2023-04-23T00:26:40.857Z,13.73
2023-04-23T00:28:36.416Z,16.80
2023-04-23T00:30:34.429Z,16.02
2023-04-23T00:32:30.287Z,13.18
2023-04-23T00:34:26.292Z,22.75
2023-04-23T00:36:21.772Z,14.27
2023-04-23T00:38:16.994Z,21.50
2023-04-23T00:40:14.020Z,14.48
2023-04-23T00:42:14.168Z,15.98
2023-04-23T00:44:09.620Z,19.05
2023-04-23T00:46:09.018Z,16.50
2023-04-23T00:48:03.171Z,12.63
2023-04-23T00:50:00.258Z,14.85
2023-04-23T00:51:55.690Z,17.60
2023-04-23T00:53:51.251Z,16.08
2023-04-23T00:55:46.513Z,18.10
2023-04-23T00:57:45.264Z,16.25
2023-04-23T00:59:42.043Z,14.98
2023-04-23T01:01:41.183Z,17.92
2023-04-23T01:03:40.802Z,16.42
2023-04-23T01:05:36.421Z,14.13
2023-04-23T01:07:31.754Z,15.52
2023-04-23T01:09:32.611Z,18.10
2023-04-23T01:11:28.343Z,14.82
2023-04-23T01:13:29.729Z,14.68
2023-04-23T01:15:25.387Z,19.88
2023-04-23T01:17:26.459Z,16.58
2023-04-23T01:19:21.861Z,18.10
2023-04-23T01:21:19.971Z,13.95
2023-04-23T01:23:18.572Z,16.55
2023-04-23T01:25:14.290Z,16.25
2023-04-23T01:27:09.790Z,18.95
2023-04-23T01:29:06.220Z,17.80
2023-04-23T01:31:04.205Z,19.77
2023-04-23T01:33:01.418Z,16.70
2023-04-23T01:34:59.395Z,15.30
2023-04-23T01:37:00.048Z,13.38
2023-04-23T01:38:58.308Z,14.50
2023-04-23T01:40:59.820Z,18.63
2023-04-23T01:42:55.114Z,14.80
2023-04-23T01:44:52.416Z,16.42
2023-04-23T01:46:47.475Z,12.57
2023-04-23T01:48:43.333Z,14.93
2023-04-23T01:50:38.606Z,20.60
2023-04-23T01:52:34.316Z,20.10
2023-04-23T01:54:32.144Z,17.88
2023-04-23T01:56:30.760Z,14.57
2023-04-23T01:58:26.009Z,17.13
2023-04-23T02:00:19.163Z,12.45
2023-04-23T02:02:15.347Z,16.67
2023-04-23T02:04:12.596Z,16.05
2023-04-23T02:06:08.277Z,16.05
2023-04-23T02:08:03.796Z,12.30
2023-04-23T02:10:01.484Z,17.52
2023-04-23T02:11:57.843Z,16.60
2023-04-23T02:13:53.117Z,14.30
2023-04-23T02:15:48.468Z,17.58
2023-04-23T02:17:43.650Z,13.07
2023-04-23T02:19:39.026Z,14.45
2023-04-23T02:21:34.386Z,19.42
2023-04-23T02:23:29.816Z,16.35
2023-04-23T02:25:27.438Z,19.05
2023-04-23T02:27:23.110Z,15.75
2023-04-23T02:29:18.147Z,14.82
2023-04-23T02:31:10.982Z,15.70
2023-04-23T02:33:06.827Z,20.40
2023-04-23T02:35:02.457Z,18.33
2023-04-23T02:36:57.582Z,20.38
2023-04-23T02:38:52.956Z,14.13
2023-04-23T02:40:50.628Z,16.77
2023-04-23T02:42:48.829Z,24.42
2023-04-23T02:44:44.042Z,24.95
2023-04-23T02:46:40.069Z,17.73
2023-04-23T02:48:35.047Z,17.92
2023-04-23T02:50:30.541Z,19.08
2023-04-23T02:52:25.554Z,17.35
2023-04-23T02:54:20.980Z,15.57
2023-04-23T02:56:18.594Z,15.85
2023-04-23T02:58:14.098Z,16.77
2023-04-23T03:00:09.061Z,18.23
2023-04-23T03:02:04.687Z,20.98
2023-04-23T03:03:59.869Z,18.47
2023-04-23T03:05:56.247Z,17.55
2023-04-23T03:07:51.241Z,14.98
2023-04-23T03:09:46.929Z,18.13
2023-04-23T03:11:44.595Z,19.27
2023-04-23T03:13:39.964Z,14.35
2023-04-23T03:15:35.042Z,17.55
2023-04-23T03:17:30.433Z,16.88
2023-04-23T03:19:25.597Z,21.03
2023-04-23T03:21:20.974Z,16.70
2023-04-23T03:23:16.060Z,13.97
2023-04-23T03:25:12.264Z,17.57
2023-04-23T03:27:09.965Z,32.17
2023-04-23T03:29:06.398Z,16.63
2023-04-23T03:31:01.526Z,19.10
2023-04-23T03:32:58.596Z,19.60
2023-04-23T03:34:51.374Z,18.40
2023-04-23T03:36:48.830Z,22.05
2023-04-23T03:38:43.949Z,18.92
2023-04-23T03:40:39.659Z,19.33
2023-04-23T03:42:37.368Z,16.55
2023-04-23T03:44:35.511Z,17.52
2023-04-23T03:46:30.587Z,18.48
2023-04-23T03:48:26.385Z,17.70
2023-04-23T03:50:21.425Z,14.60
2023-04-23T03:52:16.793Z,12.60
2023-04-23T03:54:11.846Z,11.52
2023-04-23T03:56:07.493Z,14.20
2023-04-23T03:58:06.016Z,10.90
2023-04-23T04:00:01.419Z,12.70
2023-04-23T04:01:56.494Z,13.43
2023-04-23T04:03:52.080Z,9.40
2023-04-23T04:05:47.341Z,13.40
2023-04-23T04:07:43.387Z,17.02
2023-04-23T04:09:38.392Z,17.95
2023-04-23T04:11:33.791Z,14.30
2023-04-23T04:13:31.416Z,18.35
2023-04-23T04:15:27.012Z,17.65
2023-04-23T04:17:22.076Z,18.85
2023-04-23T04:19:17.567Z,15.45
2023-04-23T04:21:12.673Z,23.50
2023-04-23T04:23:08.157Z,18.25
2023-04-23T04:25:03.294Z,19.73
2023-04-23T04:26:58.676Z,17.98
2023-04-23T04:28:56.398Z,17.77
2023-04-23T04:30:52.103Z,21.02
2023-04-23T04:32:47.440Z,18.42
2023-04-23T04:34:43.551Z,24.00
2023-04-23T04:36:38.870Z,17.67
2023-04-23T04:38:34.288Z,14.85
2023-04-23T04:40:30.537Z,17.95
2023-04-23T04:42:27.059Z,15.23
2023-04-23T04:44:25.391Z,16.20
2023-04-23T04:46:21.046Z,12.07
2023-04-23T04:48:18.018Z,21.02
2023-04-23T04:50:14.333Z,15.43
2023-04-23T04:52:09.478Z,17.88
2023-04-23T04:54:05.014Z,16.55
2023-04-23T04:56:00.049Z,15.32
2023-04-23T04:57:56.072Z,18.80
2023-04-23T04:59:54.070Z,17.90
2023-04-23T05:01:49.504Z,15.90
2023-04-23T05:03:44.755Z,20.40
2023-04-23T05:05:40.192Z,17.95
2023-04-23T05:07:35.285Z,19.13
2023-04-23T05:09:30.700Z,16.13
2023-04-23T05:11:25.900Z,21.52
2023-04-23T05:13:21.425Z,23.10
2023-04-23T05:15:19.040Z,17.85
2023-04-23T05:17:14.462Z,17.23
2023-04-23T05:19:09.871Z,20.20
2023-04-23T05:21:05.368Z,19.67
2023-04-23T05:23:02.385Z,18.40
2023-04-23T05:24:57.780Z,18.97
2023-04-23T05:26:53.169Z,18.50
2023-04-23T05:28:48.554Z,21.95
2023-04-23T05:30:46.521Z,16.38
2023-04-23T05:32:42.024Z,18.53
2023-04-23T05:34:37.101Z,19.83
2023-04-23T05:36:32.822Z,17.67
2023-04-23T05:38:27.791Z,19.30
2023-04-23T05:40:26.018Z,20.67
2023-04-23T05:42:21.496Z,19.23
2023-04-23T05:44:17.239Z,17.55
2023-04-23T05:46:15.236Z,19.10
2023-04-23T05:48:14.383Z,22.13
2023-04-23T05:50:11.697Z,19.50
2023-04-23T05:52:07.113Z,19.83
2023-04-23T05:54:02.905Z,21.92
2023-04-23T05:55:58.330Z,16.77
2023-04-23T05:57:53.403Z,18.70
2023-04-23T05:59:48.793Z,17.43
2023-04-23T06:01:47.699Z,18.92
2023-04-23T06:03:45.728Z,18.63
2023-04-23T06:05:43.357Z,18.85
2023-04-23T06:07:38.921Z,18.95
2023-04-23T06:09:33.992Z,16.02
2023-04-23T06:11:32.204Z,22.05
2023-04-23T06:13:28.460Z,21.00
2023-04-23T06:15:27.204Z,19.33
2023-04-23T06:17:24.932Z,18.95
2023-04-23T06:19:20.338Z,17.70
2023-04-23T06:21:15.363Z,17.07
2023-04-23T06:23:10.706Z,16.42
2023-04-23T06:25:05.895Z,24.30
2023-04-23T06:27:02.139Z,15.90
2023-04-23T06:28:57.338Z,15.88
2023-04-23T06:30:52.728Z,14.23
2023-04-23T06:32:50.581Z,15.50
2023-04-23T06:35:00.275Z,17.65
2023-04-23T06:36:56.964Z,15.38
2023-04-23T06:38:52.349Z,15.85
2023-04-23T06:40:47.676Z,14.18
2023-04-23T06:42:43.179Z,13.98
2023-04-23T06:44:38.457Z,12.18
2023-04-23T06:46:33.860Z,12.52
2023-04-23T06:48:32.426Z,13.48
2023-04-23T06:50:28.100Z,15.60
2023-04-23T06:52:23.222Z,13.90
2023-04-23T06:54:18.632Z,14.32
2023-04-23T06:56:13.686Z,14.18
2023-04-23T06:58:10.088Z,13.73
2023-04-23T07:00:05.760Z,11.70
2023-04-23T07:02:01.221Z,13.88
2023-04-23T07:03:58.919Z,15.18
2023-04-23T07:05:54.386Z,13.25
2023-04-23T07:07:49.434Z,13.30
2023-04-23T07:09:44.950Z,13.30
2023-04-23T07:11:40.061Z,15.52
2023-04-23T07:13:35.755Z,12.35
2023-04-23T07:15:30.885Z,11.60
2023-04-23T07:17:26.487Z,12.75
2023-04-23T07:19:24.158Z,12.32
2023-04-23T07:21:19.872Z,15.23
2023-04-23T07:23:15.270Z,11.25
2023-04-23T07:25:11.793Z,10.70
2023-04-23T07:27:07.048Z,14.53
2023-04-23T07:29:02.487Z,16.70
2023-04-23T07:30:58.002Z,15.40
2023-04-23T07:32:53.477Z,12.47
2023-04-23T07:34:51.548Z,12.03
2023-04-23T07:36:46.910Z,13.43
2023-04-23T07:38:42.025Z,17.77
2023-04-23T07:40:37.716Z,12.77
2023-04-23T07:42:32.781Z,11.40
2023-04-23T07:44:28.456Z,14.63
2023-04-23T07:46:23.523Z,11.23
2023-04-23T07:48:19.324Z,16.03
2023-04-23T07:50:17.278Z,13.70
2023-04-23T07:52:12.705Z,18.87
2023-04-23T07:54:07.918Z,18.20
2023-04-23T07:56:03.662Z,16.20
2023-04-23T07:57:59.058Z,12.27
2023-04-23T07:59:55.297Z,17.70
2023-04-23T08:01:50.402Z,13.83
2023-04-23T08:03:45.921Z,13.10
2023-04-23T08:05:44.420Z,16.00
2023-04-23T08:07:39.984Z,18.87
2023-04-23T08:09:35.301Z,13.02
2023-04-23T08:11:31.088Z,15.23
2023-04-23T08:13:26.304Z,15.13
2023-04-23T08:15:21.656Z,15.65
2023-04-23T08:17:16.811Z,16.77
2023-04-23T08:19:12.284Z,15.88
2023-04-23T08:21:13.028Z,15.25
2023-04-23T08:23:08.553Z,15.15
2023-04-23T08:25:04.730Z,17.60
2023-04-23T08:27:00.128Z,13.02
2023-04-23T08:28:55.338Z,21.20
2023-04-23T08:30:50.953Z,12.73
2023-04-23T08:32:46.092Z,12.55
2023-04-23T08:34:41.554Z,14.77
2023-04-23T08:36:39.321Z,14.32
2023-04-23T08:38:34.753Z,12.85
2023-04-23T08:40:36.527Z,16.80
2023-04-23T08:42:40.654Z,16.13
2023-04-23T08:44:36.350Z,14.60
2023-04-23T08:46:34.927Z,14.60
2023-04-23T08:48:31.050Z,13.35
2023-04-23T08:50:28.047Z,12.63
2023-04-23T08:52:27.160Z,15.65
2023-04-23T08:54:25.675Z,11.57
2023-04-23T08:56:21.780Z,11.90
2023-04-23T08:58:17.433Z,11.82
2023-04-23T09:00:14.351Z,13.77
2023-04-23T09:02:10.796Z,10.25
2023-04-23T09:04:06.443Z,9.38
2023-04-23T09:06:02.242Z,11.13
2023-04-23T09:08:01.589Z,9.07
2023-04-23T09:09:57.151Z,8.43
2023-04-23T09:11:54.730Z,8.98
2023-04-23T09:13:52.942Z,11.07
2023-04-23T09:15:48.348Z,10.77
2023-04-23T09:17:46.408Z,12.45
2023-04-23T09:19:43.154Z,12.05
2023-04-23T09:21:39.495Z,13.45
2023-04-23T09:23:38.607Z,14.73
2023-04-23T09:25:34.176Z,11.35
2023-04-23T09:27:29.272Z,12.27
2023-04-23T09:29:26.231Z,9.65
2023-04-23T09:31:25.384Z,16.45
2023-04-23T09:33:20.817Z,10.10
2023-04-23T09:35:19.708Z,9.32
2023-04-23T09:37:16.212Z,8.43
2023-04-23T09:39:18.263Z,7.73
2023-04-23T09:41:31.818Z,8.25
2023-04-23T09:43:26.883Z,9.65
2023-04-23T09:45:22.593Z,10.82
2023-04-23T09:47:17.581Z,12.17
2023-04-23T09:49:14.597Z,7.20
2023-04-23T09:51:10.155Z,7.83
2023-04-23T09:53:06.631Z,7.53
2023-04-23T09:55:05.842Z,6.32
2023-04-23T09:57:03.173Z,7.00
2023-04-23T09:58:58.538Z,5.10
2023-04-23T10:00:54.258Z,5.23
2023-04-23T10:02:51.012Z,9.60
2023-04-23T10:04:47.609Z,7.80
2023-04-23T10:06:53.477Z,6.68
2023-04-23T10:09:01.533Z,8.13
2023-04-23T10:11:10.167Z,7.40
2023-04-23T10:13:16.598Z,5.37
2023-04-23T10:15:13.571Z,6.30
2023-04-23T10:17:11.054Z,4.28
2023-04-23T10:19:09.304Z,5.18
2023-04-23T10:21:06.227Z,9.57
2023-04-23T10:23:03.634Z,4.93
2023-04-23T10:25:01.043Z,5.77
2023-04-23T10:27:02.106Z,4.50
2023-04-23T10:28:58.255Z,5.60
2023-04-23T10:30:57.541Z,4.80
2023-04-23T10:32:55.770Z,3.90
2023-04-23T10:34:51.373Z,6.20
2023-04-23T10:36:46.798Z,6.67
2023-04-23T10:38:56.894Z,4.30
2023-04-23T10:40:58.176Z,4.72
2023-04-23T10:42:56.302Z,4.35
2023-04-23T10:44:59.346Z,6.13
2023-04-23T10:47:02.001Z,4.38
2023-04-23T10:49:09.517Z,3.75
2023-04-23T10:51:21.271Z,5.07
2023-04-23T10:53:26.372Z,4.40
2023-04-23T10:55:24.277Z,5.85
2023-04-23T10:57:24.453Z,5.85
2023-04-23T10:59:27.124Z,3.70
2023-04-23T11:01:23.064Z,4.07
2023-04-23T11:03:33.756Z,4.97
2023-04-23T11:05:32.320Z,5.30
2023-04-23T11:07:37.570Z,5.18
2023-04-23T11:09:41.018Z,11.13
2023-04-23T11:11:49.189Z,8.95
2023-04-23T11:13:59.699Z,10.15
2023-04-23T11:16:23.661Z,12.75
2023-04-23T11:18:32.676Z,11.70
2023-04-23T11:20:37.018Z,15.50
2023-04-23T11:22:46.445Z,11.45
2023-04-23T11:24:49.625Z,11.97
2023-04-23T11:26:57.395Z,12.65
2023-04-23T11:28:56.508Z,10.05
2023-04-23T11:30:56.311Z,10.90
2023-04-23T11:32:55.551Z,10.07
2023-04-23T11:34:53.437Z,9.50
2023-04-23T11:36:49.616Z,7.60
2023-04-23T11:38:46.331Z,8.27
2023-04-23T11:40:42.981Z,9.30
2023-04-23T11:42:48.571Z,6.68
2023-04-23T11:44:45.695Z,6.50
2023-04-23T11:46:41.664Z,5.25
2023-04-23T11:48:40.708Z,6.85
2023-04-23T11:50:39.901Z,5.82
2023-04-23T11:52:40.429Z,7.03
2023-04-23T11:54:36.153Z,6.43
2023-04-23T11:56:33.867Z,7.20
2023-04-23T11:58:30.133Z,6.63
2023-04-23T12:00:31.432Z,4.65
2023-04-23T12:02:59.427Z,7.93
2023-04-23T12:05:00.290Z,9.57
2023-04-23T12:07:12.789Z,6.40
2023-04-23T12:09:16.820Z,6.28
2023-04-23T12:11:16.522Z,4.70
2023-04-23T12:13:18.237Z,16.40
2023-04-23T12:15:15.951Z,6.10
2023-04-23T12:17:13.598Z,6.80
2023-04-23T12:19:15.860Z,5.97
2023-04-23T12:21:17.797Z,4.90
2023-04-23T12:23:14.301Z,4.18
2023-04-23T12:25:12.290Z,5.72
2023-04-23T12:27:10.291Z,5.47
2023-04-23T12:29:05.900Z,4.70
2023-04-23T12:31:06.788Z,3.58
2023-04-23T12:33:06.710Z,3.50
2023-04-23T12:35:06.578Z,3.90
2023-04-23T12:37:11.215Z,3.30
2023-04-23T12:39:22.294Z,4.22
2023-04-23T12:41:18.220Z,4.55
2023-04-23T12:43:13.551Z,5.85
2023-04-23T12:45:12.676Z,7.22
2023-04-23T12:47:10.052Z,4.32
2023-04-23T12:49:10.473Z,4.00
2023-04-23T12:51:08.308Z,3.65
2023-04-23T12:53:08.544Z,3.08
2023-04-23T12:55:05.544Z,3.95
2023-04-23T12:57:02.134Z,4.05
2023-04-23T12:58:57.722Z,3.75
2023-04-23T13:00:53.570Z,2.22
2023-04-23T13:02:49.109Z,3.15
2023-04-23T13:04:45.522Z,2.63
2023-04-23T13:06:40.824Z,2.92
2023-04-23T13:08:38.717Z,2.67
2023-04-23T13:10:34.530Z,2.80
2023-04-23T13:12:30.276Z,2.60
2023-04-23T13:14:26.131Z,2.20
2023-04-23T13:16:21.410Z,2.97
2023-04-23T13:18:16.510Z,1.35
2023-04-23T13:20:12.642Z,1.67
2023-04-23T13:22:07.984Z,2.88
2023-04-23T13:24:05.904Z,1.98
2023-04-23T13:26:01.137Z,1.92
2023-04-23T13:27:56.500Z,2.05
2023-04-23T13:29:51.523Z,5.90
2023-04-23T13:31:47.189Z,2.20
2023-04-23T13:33:42.649Z,2.22
2023-04-23T13:35:38.927Z,3.08
2023-04-23T13:37:34.714Z,1.90
2023-04-23T13:39:32.675Z,4.00
2023-04-23T13:41:27.803Z,2.13
2023-04-23T13:43:23.507Z,2.20
2023-04-23T13:45:18.634Z,4.03
2023-04-23T13:47:14.016Z,3.85
2023-04-23T13:49:09.310Z,2.40
2023-04-23T13:51:11.493Z,3.25
2023-04-23T13:53:16.738Z,7.53
2023-04-23T13:55:14.988Z,3.97
2023-04-23T13:57:10.252Z,3.28
2023-04-23T13:59:18.700Z,4.70
2023-04-23T14:01:15.850Z,3.85
2023-04-23T14:03:11.512Z,4.80
2023-04-23T14:05:09.009Z,8.48
2023-04-23T14:07:04.725Z,6.05
2023-04-23T14:08:59.790Z,3.70
2023-04-23T14:10:57.709Z,3.13
2023-04-23T14:12:52.779Z,4.97
2023-04-23T14:14:48.220Z,6.40
2023-04-23T14:16:43.353Z,5.35
2023-04-23T14:18:38.722Z,4.22
2023-04-23T14:20:33.801Z,2.97
2023-04-23T14:22:30.294Z,5.03
2023-04-23T14:24:26.879Z,3.17
2023-04-23T14:26:47.926Z,3.13
2023-04-23T14:28:48.845Z,2.63
2023-04-23T14:30:44.291Z,15.95
2023-04-23T14:32:39.316Z,7.65
2023-04-23T14:34:35.835Z,4.05
2023-04-23T14:36:31.626Z,3.30
2023-04-23T14:38:27.496Z,2.40
2023-04-23T14:40:23.030Z,4.45
2023-04-23T14:42:21.400Z,3.20
2023-04-23T14:44:16.799Z,5.05
2023-04-23T14:46:12.561Z,3.33
2023-04-23T14:48:08.293Z,4.68
2023-04-23T14:50:03.958Z,4.03
2023-04-23T14:51:59.190Z,4.85
2023-04-23T14:53:56.562Z,3.10
2023-04-23T14:55:52.059Z,3.33
2023-04-23T14:57:50.197Z,5.22
2023-04-23T14:59:45.329Z,3.63
2023-04-23T15:01:40.833Z,9.15
2023-04-23T15:03:39.337Z,5.55
2023-04-23T15:05:34.768Z,4.03
2023-04-23T15:07:31.826Z,4.22
2023-04-23T15:09:30.173Z,3.72
2023-04-23T15:11:25.343Z,3.00
2023-04-23T15:13:49.797Z,3.25
2023-04-23T15:15:48.456Z,3.78
2023-04-23T15:17:45.622Z,6.38
2023-04-23T15:19:40.823Z,3.50
2023-04-23T15:21:36.358Z,3.75
2023-04-23T15:23:32.863Z,3.70
2023-04-23T15:25:28.779Z,4.35
2023-04-23T15:27:24.387Z,3.83
2023-04-23T15:29:24.536Z,2.97
2023-04-23T15:31:19.867Z,5.63
2023-04-23T15:33:15.332Z,4.38
2023-04-23T15:35:11.572Z,4.88
2023-04-23T15:37:06.982Z,2.85
2023-04-23T15:39:02.161Z,2.60
2023-04-23T15:40:59.219Z,2.22
2023-04-23T15:42:54.382Z,11.52
2023-04-23T15:44:54.690Z,2.95
2023-04-23T15:46:49.714Z,2.45
2023-04-23T15:48:45.206Z,5.45
2023-04-23T15:50:42.294Z,4.95
2023-04-23T15:52:41.494Z,2.97
2023-04-23T15:54:36.605Z,3.30
2023-04-23T15:56:32.050Z,3.45
2023-04-23T15:58:27.204Z,1.73
2023-04-23T16:00:25.529Z,2.78
2023-04-23T16:02:20.825Z,4.63
2023-04-23T16:04:19.008Z,2.83
2023-04-23T16:06:14.634Z,2.63
2023-04-23T16:08:10.157Z,2.92
2023-04-23T16:10:05.386Z,2.40
2023-04-23T16:12:01.291Z,12.85
2023-04-23T16:13:57.151Z,3.78
2023-04-23T16:15:55.524Z,3.45
2023-04-23T16:17:52.696Z,2.85
2023-04-23T16:19:48.126Z,3.47
2023-04-23T16:21:44.983Z,2.78
2023-04-23T16:23:40.616Z,8.65
2023-04-23T16:25:36.879Z,3.38
2023-04-23T16:27:32.305Z,5.18
2023-04-23T16:29:27.726Z,6.88
2023-04-23T16:31:25.740Z,2.08
2023-04-23T16:33:24.018Z,3.08
2023-04-23T16:35:19.522Z,2.58
2023-04-23T16:37:15.973Z,3.03
2023-04-23T16:39:11.875Z,3.92
2023-04-23T16:41:07.464Z,3.25
2023-04-23T16:43:02.800Z,2.30
2023-04-23T16:44:58.179Z,4.70
2023-04-23T16:46:56.821Z,3.20
2023-04-23T16:48:52.112Z,11.52
2023-04-23T16:50:48.076Z,9.20
2023-04-23T16:52:43.406Z,7.32
2023-04-23T16:54:39.159Z,3.03
2023-04-23T16:56:34.750Z,4.15
2023-04-23T16:58:31.478Z,3.13
2023-04-23T17:00:27.115Z,4.32
2023-04-23T17:02:25.977Z,3.83
2023-04-23T17:04:21.747Z,4.10
2023-04-23T17:06:27.576Z,5.15
2023-04-23T17:08:24.913Z,3.42
2023-04-23T17:10:20.764Z,4.38
2023-04-23T17:12:18.876Z,4.20
2023-04-23T17:14:15.020Z,3.63
2023-04-23T17:16:10.140Z,4.30
2023-04-23T17:18:09.926Z,2.83
2023-04-23T17:20:06.528Z,4.05
2023-04-23T17:22:01.957Z,4.22
2023-04-23T17:23:57.299Z,3.95
2023-04-23T17:25:52.697Z,7.70
2023-04-23T17:27:47.833Z,5.07
2023-04-23T17:29:43.292Z,4.75
2023-04-23T17:31:38.752Z,3.58
2023-04-23T17:33:37.414Z,3.83
2023-04-23T17:35:32.593Z,5.07
2023-04-23T17:37:28.299Z,5.70
2023-04-23T17:39:25.647Z,21.25
2023-04-23T17:41:22.868Z,5.63
2023-04-23T17:43:18.073Z,4.40
2023-04-23T17:45:14.321Z,3.78
2023-04-23T17:47:10.397Z,4.13
2023-04-23T17:49:08.701Z,5.07
2023-04-23T17:51:03.772Z,4.55
2023-04-23T17:52:59.237Z,3.88
2023-04-23T17:54:54.331Z,3.42
2023-04-23T17:56:49.749Z,5.85
2023-04-23T17:58:45.296Z,4.47
2023-04-23T18:00:42.189Z,3.70
2023-04-23T18:02:40.364Z,5.63
2023-04-23T18:04:38.767Z,4.07
2023-04-23T18:06:35.753Z,4.15
2023-04-23T18:08:31.546Z,4.70
2023-04-23T18:10:27.004Z,4.97
2023-04-23T18:12:22.359Z,4.45
2023-04-23T18:14:17.823Z,4.75
2023-04-23T18:16:13.274Z,8.65
2023-04-23T18:18:08.440Z,8.30
2023-04-23T18:20:08.876Z,6.50
2023-04-23T18:22:03.907Z,4.22
2023-04-23T18:23:59.357Z,4.13
2023-04-23T18:25:54.379Z,5.03
2023-04-23T18:27:49.738Z,5.72
2023-04-23T18:29:45.555Z,4.30
2023-04-23T18:31:41.015Z,5.68
2023-04-23T18:33:43.951Z,6.45
2023-04-23T18:35:44.505Z,11.48
2023-04-23T18:37:44.738Z,6.28
2023-04-23T18:39:40.693Z,7.88
2023-04-23T18:41:36.191Z,5.30
2023-04-23T18:43:31.956Z,8.02
2023-04-23T18:45:27.049Z,11.00
2023-04-23T18:47:23.582Z,10.55
2023-04-23T18:49:46.794Z,8.82
2023-04-23T18:51:47.271Z,11.02
2023-04-23T18:53:42.397Z,7.15
2023-04-23T18:55:37.777Z,8.45
2023-04-23T18:57:32.841Z,5.88
2023-04-23T18:59:28.339Z,7.78
2023-04-23T19:01:24.322Z,6.50
2023-04-23T19:03:26.879Z,4.82
2023-04-23T19:05:22.972Z,6.38
2023-04-23T19:07:21.561Z,8.32
2023-04-23T19:09:17.016Z,9.57
2023-04-23T19:11:13.802Z,5.43
2023-04-23T19:13:09.144Z,6.18
2023-04-23T19:15:05.034Z,10.15
2023-04-23T19:17:00.969Z,11.85
2023-04-23T19:18:56.759Z,6.47
2023-04-23T19:20:52.243Z,11.18
2023-04-23T19:22:50.545Z,9.40
2023-04-23T19:24:45.881Z,6.85
2023-04-23T19:26:45.874Z,8.55
2023-04-23T19:28:41.468Z,5.85
2023-04-23T19:30:38.100Z,7.15
2023-04-23T19:32:34.439Z,5.78
2023-04-23T19:34:30.112Z,10.27
2023-04-23T19:36:26.481Z,4.90
2023-04-23T19:38:25.197Z,8.05
2023-04-23T19:40:20.422Z,6.40
2023-04-23T19:42:15.778Z,7.60
2023-04-23T19:44:10.724Z,9.35
2023-04-23T19:46:06.214Z,4.63
2023-04-23T19:48:04.703Z,8.40
2023-04-23T19:50:00.277Z,16.55
2023-04-23T19:51:56.367Z,7.82
2023-04-23T19:53:55.951Z,4.03
2023-04-23T19:55:50.981Z,4.68
2023-04-23T19:57:46.473Z,8.57
2023-04-23T19:59:41.682Z,5.03
2023-04-23T20:01:37.290Z,5.18
2023-04-23T20:03:34.535Z,7.97
2023-04-23T20:05:29.998Z,9.38
2023-04-23T20:07:25.287Z,12.00
2023-04-23T20:09:24.696Z,6.38
2023-04-23T20:11:20.080Z,7.93
2023-04-23T20:13:15.238Z,5.90
2023-04-23T20:15:12.904Z,6.43
2023-04-23T20:17:08.215Z,11.93
2023-04-23T20:19:05.178Z,5.72
2023-04-23T20:21:00.203Z,28.63
2023-04-23T20:22:55.808Z,44.65
2023-04-23T20:24:53.555Z,4.78
2023-04-23T20:26:49.030Z,6.50
2023-04-23T20:28:47.497Z,5.45
2023-04-23T20:30:43.026Z,6.07
2023-04-23T20:32:38.268Z,6.35
2023-04-23T20:34:33.930Z,6.47
2023-04-23T20:36:33.434Z,4.60
2023-04-23T20:38:30.792Z,3.78
2023-04-23T20:40:28.562Z,6.43
2023-04-23T20:42:25.700Z,6.00
2023-04-23T20:44:25.204Z,4.05
2023-04-23T20:46:21.690Z,5.05
2023-04-23T20:48:18.725Z,3.97
2023-04-23T20:50:14.342Z,4.45
2023-04-23T20:52:09.556Z,7.93
2023-04-23T20:54:05.341Z,6.60
2023-04-23T20:56:05.618Z,4.93
2023-04-23T20:58:07.776Z,7.15
2023-04-23T21:00:09.284Z,4.90
2023-04-23T21:02:10.636Z,3.70
2023-04-23T21:04:07.319Z,11.63
2023-04-23T21:06:07.877Z,4.70
2023-04-23T21:08:03.973Z,4.50
2023-04-23T21:10:04.903Z,8.45
2023-04-23T21:12:10.271Z,4.15
2023-04-23T21:14:09.817Z,4.57
2023-04-23T21:16:06.512Z,4.82
2023-04-23T21:18:03.133Z,4.72
2023-04-23T21:19:58.267Z,7.22
2023-04-23T21:21:54.372Z,5.05
2023-04-23T21:23:54.870Z,6.25
2023-04-23T21:25:50.835Z,4.60
2023-04-23T21:27:49.198Z,4.80
2023-04-23T21:29:48.613Z,5.35
2023-04-23T21:31:49.558Z,7.90
2023-04-23T21:33:45.538Z,7.70
2023-04-23T21:35:41.261Z,8.13
2023-04-23T21:37:38.185Z,5.68
2023-04-23T21:39:33.891Z,5.80
2023-04-23T21:41:29.716Z,5.75
2023-04-23T21:43:27.963Z,7.30
2023-04-23T21:45:30.768Z,8.00
2023-04-23T21:47:31.142Z,4.93
2023-04-23T21:49:28.110Z,5.00
2023-04-23T21:51:25.269Z,5.95
2023-04-23T21:53:28.738Z,5.68
2023-04-23T21:55:24.667Z,5.28
2023-04-23T21:57:20.187Z,7.45
2023-04-23T21:59:19.173Z,5.22
2023-04-23T22:01:15.045Z,4.30
2023-04-23T22:03:18.808Z,5.35
2023-04-23T22:05:22.860Z,4.47
2023-04-23T22:07:20.994Z,4.55
2023-04-23T22:09:17.730Z,4.57
2023-04-23T22:11:15.135Z,4.53
2023-04-23T22:13:12.497Z,5.32
2023-04-23T22:15:15.504Z,4.30
2023-04-23T22:17:14.763Z,4.20
2023-04-23T22:19:12.797Z,4.38
2023-04-23T22:21:08.541Z,4.20
2023-04-23T22:23:03.731Z,4.35
2023-04-23T22:24:59.326Z,3.90
2023-04-23T22:26:54.402Z,5.20
2023-04-23T22:28:50.002Z,4.32
2023-04-23T22:30:47.840Z,4.68
2023-04-23T22:32:44.624Z,7.28
2023-04-23T22:34:39.789Z,4.15
2023-04-23T22:36:35.513Z,8.15
2023-04-23T22:38:30.623Z,6.90
2023-04-23T22:40:26.181Z,6.07
2023-04-23T22:42:27.475Z,5.03
2023-04-23T22:44:23.007Z,7.97
2023-04-23T22:46:20.667Z,4.85
2023-04-23T22:48:16.317Z,5.45
2023-04-23T22:50:15.057Z,5.00
2023-04-23T22:52:08.880Z,5.90
2023-04-23T22:54:04.122Z,4.70
2023-04-23T22:55:59.210Z,5.57
2023-04-23T22:57:54.643Z,6.95
2023-04-23T22:59:49.708Z,5.47
2023-04-23T23:01:48.690Z,4.20
2023-04-23T23:03:44.166Z,4.95
2023-04-23T23:05:39.653Z,5.07
2023-04-23T23:07:34.674Z,4.50
2023-04-23T23:09:30.041Z,8.32
2023-04-23T23:11:25.092Z,4.15
2023-04-23T23:13:20.733Z,5.70
2023-04-23T23:15:17.902Z,5.47
2023-04-23T23:17:17.735Z,4.15
2023-04-23T23:19:13.335Z,4.70
2023-04-23T23:21:08.906Z,4.03
2023-04-23T23:23:04.399Z,7.15
2023-04-23T23:25:00.155Z,4.43
2023-04-23T23:26:55.962Z,7.75
2023-04-23T23:28:51.997Z,5.60
2023-04-23T23:30:53.819Z,6.80
2023-04-23T23:32:53.355Z,6.47
2023-04-23T23:34:48.970Z,5.43
2023-04-23T23:36:45.514Z,4.97
2023-04-23T23:38:40.585Z,5.22
2023-04-23T23:40:36.248Z,5.82
2023-04-23T23:42:31.471Z,5.10
2023-04-23T23:44:27.140Z,5.13
2023-04-23T23:46:23.132Z,5.97
2023-04-23T23:48:22.399Z,8.95
2023-04-23T23:50:17.674Z,4.80
2023-04-23T23:52:14.106Z,5.43
2023-04-23T23:54:10.474Z,4.85
2023-04-23T23:56:07.286Z,6.38
2023-04-23T23:58:03.276Z,5.97
